Time;durP1;ratioP1;P1;durP2;ratioP2;P2;SDS_P1;SDS_P2;PMS_P1;PMS_P2;Temp;Humidity;BMP_temperature;BMP_pressure;BME280_temperature;BME280_humidity;BME280_pressure;Samples;Min_cycle;Max_cycle;Signal;HPM_P1;HPM_P2
2022/11/26 00:01:13;;;;;;;297.43;57.47;;;;;;;1.37;100.00;100452.59;4202535;28;21884;-72
2022/11/26 00:03:40;;;;;;;232.43;50.53;;;;;;;1.43;100.00;100457.53;4203482;28;25070;-73
2022/11/26 00:06:29;;;;;;;279.93;54.77;;;;;;;1.43;100.00;100454.91;4202049;28;21874;-72
2022/11/26 00:08:55;;;;;;;208.90;49.07;;;;;;;1.47;100.00;100459.88;4216339;28;20227;-70
2022/11/26 00:11:22;;;;;;;366.00;59.90;;;;;;;1.26;100.00;100454.06;4197454;28;20884;-71
2022/11/26 00:13:48;;;;;;;223.40;50.57;;;;;;;1.43;100.00;100458.34;4203960;28;20239;-70
2022/11/26 00:16:15;;;;;;;364.93;58.27;;;;;;;1.37;100.00;100460.47;4222896;28;20243;-74
2022/11/26 00:18:42;;;;;;;256.47;51.57;;;;;;;1.38;100.00;100459.53;4204824;28;20352;-73
2022/11/26 00:21:17;;;;;;;233.70;52.77;;;;;;;1.46;100.00;100462.59;4202423;28;20241;-72
2022/11/26 00:23:44;;;;;;;284.57;57.47;;;;;;;1.35;100.00;100464.94;4215409;28;21944;-69
2022/11/26 00:26:15;;;;;;;490.03;70.70;;;;;;;1.32;100.00;100459.88;4217964;28;22969;-71
2022/11/26 00:28:48;;;;;;;265.97;56.73;;;;;;;1.42;100.00;100456.66;4192075;28;20283;-70
2022/11/26 00:31:15;;;;;;;300.87;58.20;;;;;;;1.50;100.00;100464.09;4196665;28;21357;-75
2022/11/26 00:33:42;;;;;;;332.47;61.63;;;;;;;1.53;100.00;100465.72;4213177;28;21751;-72
2022/11/26 00:36:16;;;;;;;260.67;55.80;;;;;;;1.51;100.00;100463.16;4209124;28;20275;-74
2022/11/26 00:38:44;;;;;;;299.97;58.27;;;;;;;1.41;100.00;100469.88;4203536;28;20242;-72
2022/11/26 00:41:14;;;;;;;349.90;61.80;;;;;;;1.34;100.00;100468.50;4212106;28;25413;-72
2022/11/26 00:43:41;;;;;;;229.00;50.57;;;;;;;1.39;100.00;100476.97;4217548;28;20679;-72
2022/11/26 00:46:12;;;;;;;222.00;52.43;;;;;;;1.43;100.00;100470.63;4201422;28;20232;-72
2022/11/26 00:48:39;;;;;;;319.70;60.93;;;;;;;1.41;100.00;100467.25;4209042;28;20236;-73
2022/11/26 00:51:10;;;;;;;280.07;54.77;;;;;;;1.39;100.00;100476.97;4204192;28;20314;-73
2022/11/26 00:53:37;;;;;;;354.67;60.37;;;;;;;1.33;100.00;100474.66;4203947;28;20220;-72
2022/11/26 00:56:04;;;;;;;276.93;52.63;;;;;;;1.35;100.00;100475.44;4208491;28;20237;-72
2022/11/26 00:58:30;;;;;;;231.43;50.53;;;;;;;1.50;100.00;100474.59;4204764;28;20259;-73
2022/11/26 01:00:58;;;;;;;239.00;51.57;;;;;;;1.53;100.00;100479.66;4209885;28;21142;-73
2022/11/26 01:03:25;;;;;;;211.83;47.67;;;;;;;1.61;100.00;100484.47;4205588;28;20310;-71
2022/11/26 01:05:54;;;;;;;223.70;50.90;;;;;;;1.55;100.00;100479.59;4228916;28;20235;-73
2022/11/26 01:08:30;;;;;;;190.33;47.00;;;;;;;1.61;100.00;100477.44;4208055;28;20235;-73
2022/11/26 01:10:58;;;;;;;196.40;45.20;;;;;;;1.60;100.00;100486.25;4212274;28;20317;-72
2022/11/26 01:13:26;;;;;;;179.13;45.63;;;;;;;1.66;100.00;100485.91;4196182;28;20228;-72
2022/11/26 01:15:54;;;;;;;195.37;47.47;;;;;;;1.67;100.00;100477.09;4212061;28;20228;-73
2022/11/26 01:18:21;;;;;;;204.63;47.27;;;;;;;1.74;100.00;100482.84;4205094;28;20745;-72
2022/11/26 01:20:48;;;;;;;232.87;51.10;;;;;;;1.72;100.00;100483.88;4208999;28;20296;-72
2022/11/26 01:23:17;;;;;;;243.67;50.03;;;;;;;1.73;100.00;100483.75;4207073;28;20778;-73
2022/11/26 01:25:44;;;;;;;199.43;47.13;;;;;;;1.75;100.00;100478.44;4212751;28;22781;-72
2022/11/26 01:28:12;;;;;;;278.70;55.40;;;;;;;1.62;100.00;100481.75;4221579;28;20229;-73
2022/11/26 01:30:39;;;;;;;224.47;47.83;;;;;;;1.64;100.00;100486.94;4216299;28;20314;-73
2022/11/26 01:33:06;;;;;;;279.87;54.57;;;;;;;1.64;100.00;100479.91;4228164;28;20245;-73
2022/11/26 01:35:34;;;;;;;299.13;53.57;;;;;;;1.60;100.00;100488.88;4202231;28;21257;-74
2022/11/26 01:38:01;;;;;;;251.30;52.63;;;;;;;1.61;100.00;100487.09;4204673;28;20285;-73
2022/11/26 01:40:27;;;;;;;231.97;47.80;;;;;;;1.61;100.00;100495.78;4211995;28;20229;-72
2022/11/26 01:43:35;;;;;;;258.87;53.20;;;;;;;1.62;100.00;100491.41;4215547;28;20242;-71
2022/11/26 01:46:02;;;;;;;389.63;59.10;;;;;;;1.40;100.00;100497.00;4203212;28;20926;-73
2022/11/26 01:48:32;;;;;;;481.47;63.27;;;;;;;1.17;100.00;100491.25;4209917;28;20330;-73
2022/11/26 01:51:04;;;;;;;207.20;48.27;;;;;;;1.39;100.00;100493.53;4207403;28;20238;-73
2022/11/26 01:53:51;;;;;;;241.23;51.50;;;;;;;1.33;100.00;100493.03;4210625;28;20322;-74
2022/11/26 01:56:31;;;;;;;286.40;51.40;;;;;;;1.35;100.00;100485.94;4210349;28;22292;-72
2022/11/26 01:59:24;;;;;;;407.77;57.53;;;;;;;1.26;100.00;100488.13;4200914;28;21811;-74
2022/11/26 02:01:51;;;;;;;336.33;56.57;;;;;;;1.22;100.00;100493.63;4216606;28;20236;-73
2022/11/26 02:04:31;;;;;;;392.67;58.20;;;;;;;1.26;100.00;100495.13;4218768;28;20236;-73
2022/11/26 02:06:58;;;;;;;402.53;58.13;;;;;;;1.26;100.00;100495.13;4182776;28;20304;-72
2022/11/26 02:09:26;;;;;;;216.63;47.47;;;;;;;1.29;100.00;100494.13;4199359;28;20292;-73
2022/11/26 02:11:53;;;;;;;193.13;46.03;;;;;;;1.37;100.00;100495.41;4208787;28;20232;-73
2022/11/26 02:14:22;;;;;;;296.57;53.97;;;;;;;1.43;100.00;100497.69;4215312;28;20412;-72
2022/11/26 02:17:09;;;;;;;355.83;53.67;;;;;;;1.38;100.00;100499.72;4202829;28;21817;-73
2022/11/26 02:20:00;;;;;;;199.83;47.80;;;;;;;1.42;100.00;100498.59;4221879;28;20322;-72
2022/11/26 02:22:50;;;;;;;241.00;48.83;;;;;;;1.47;100.00;100500.97;4224424;28;22244;-73
2022/11/26 02:25:52;;;;;;;512.10;65.27;;;;;;;1.29;100.00;100502.84;4214887;28;21274;-73
2022/11/26 02:28:31;;;;;;;299.87;51.03;;;;;;;1.29;100.00;100499.34;4206709;28;20243;-73
2022/11/26 02:31:06;;;;;;;192.60;47.30;;;;;;;1.41;100.00;100509.19;4206052;28;20235;-73
2022/11/26 02:33:41;;;;;;;202.13;46.53;;;;;;;1.53;100.00;100505.88;4219915;28;20234;-73
2022/11/26 02:36:15;;;;;;;420.53;58.00;;;;;;;1.35;100.00;100506.91;4217159;28;21814;-74
2022/11/26 02:38:43;;;;;;;198.43;45.63;;;;;;;1.37;100.00;100512.91;4224218;28;23000;-74
2022/11/26 02:41:09;;;;;;;296.97;53.37;;;;;;;1.46;100.00;100509.78;4216493;28;24410;-74
2022/11/26 02:43:37;;;;;;;370.57;55.07;;;;;;;1.46;100.00;100513.25;4213629;28;20625;-73
2022/11/26 02:46:17;;;;;;;206.83;46.83;;;;;;;1.48;100.00;100503.53;4218211;28;20294;-75
2022/11/26 02:48:46;;;;;;;625.43;69.00;;;;;;;1.30;100.00;100508.94;4207317;28;20235;-74
2022/11/26 02:51:22;;;;;;;218.20;47.40;;;;;;;1.26;100.00;100509.09;4214285;28;20229;-73
2022/11/26 02:53:49;;;;;;;193.23;46.70;;;;;;;1.25;100.00;100507.41;4226163;28;20235;-74
2022/11/26 02:56:22;;;;;;;217.40;50.53;;;;;;;1.35;100.00;100506.91;4216507;28;22680;-73
2022/11/26 02:58:50;;;;;;;224.00;51.27;;;;;;;1.41;100.00;100506.56;4208728;28;22091;-72
2022/11/26 03:01:28;;;;;;;191.17;45.17;;;;;;;1.47;100.00;100509.72;4199463;28;20323;-72
2022/11/26 03:03:58;;;;;;;239.60;49.23;;;;;;;1.43;100.00;100505.56;4220540;28;20231;-71
2022/11/26 03:06:26;;;;;;;232.23;48.43;;;;;;;1.50;100.00;100502.56;4199373;28;20237;-71
2022/11/26 03:08:53;;;;;;;176.00;43.43;;;;;;;1.39;100.00;100505.81;4216216;28;20296;-72
2022/11/26 03:11:20;;;;;;;251.73;52.10;;;;;;;1.31;100.00;100505.38;4218787;28;20232;-70
2022/11/26 03:13:48;;;;;;;197.93;47.17;;;;;;;1.38;100.00;100506.72;4212487;28;20702;-70
2022/11/26 03:16:15;;;;;;;373.53;57.27;;;;;;;1.30;100.00;100514.19;4206986;28;21559;-72
2022/11/26 03:18:42;;;;;;;222.10;44.67;;;;;;;1.33;100.00;100516.63;4260645;28;21344;-72
2022/11/26 03:21:08;;;;;;;333.23;52.23;;;;;;;1.35;100.00;100517.38;4282905;28;22239;-72
2022/11/26 03:23:35;;;;;;;184.50;46.47;;;;;;;1.40;100.00;100515.34;4244527;28;20273;-72
2022/11/26 03:26:02;;;;;;;352.53;54.20;;;;;;;1.35;100.00;100514.75;4294027;28;20347;-73
2022/11/26 03:28:29;;;;;;;215.83;48.47;;;;;;;1.41;100.00;100517.91;4268959;28;20239;-71
2022/11/26 03:30:55;;;;;;;170.87;43.87;;;;;;;1.42;100.00;100516.13;4260830;28;20300;-70
2022/11/26 03:33:22;;;;;;;231.93;48.93;;;;;;;1.39;100.00;100519.75;4280747;28;20240;-72
2022/11/26 03:35:49;;;;;;;230.83;48.40;;;;;;;1.37;100.00;100518.16;4273520;28;20242;-70
2022/11/26 03:38:16;;;;;;;158.80;42.77;;;;;;;1.37;100.00;100519.00;4198036;28;20361;-70
2022/11/26 03:40:42;;;;;;;197.67;45.33;;;;;;;1.40;100.00;100525.84;4208882;28;26492;-70
2022/11/26 03:43:09;;;;;;;159.80;44.33;;;;;;;1.41;100.00;100524.94;4197124;28;20617;-72
2022/11/26 03:45:35;;;;;;;197.60;46.60;;;;;;;1.41;100.00;100528.38;4206270;28;21619;-70
2022/11/26 03:48:02;;;;;;;165.50;43.03;;;;;;;1.44;100.00;100533.44;4210633;28;20236;-72
2022/11/26 03:50:29;;;;;;;265.20;51.40;;;;;;;1.38;100.00;100536.44;4206706;28;20707;-72
2022/11/26 03:52:55;;;;;;;211.30;47.20;;;;;;;1.29;100.00;100538.69;4206100;28;20664;-71
2022/11/26 03:55:22;;;;;;;166.03;41.97;;;;;;;1.33;100.00;100534.97;4206458;28;21055;-71
2022/11/26 03:57:49;;;;;;;172.67;43.70;;;;;;;1.35;100.00;100540.97;4216939;28;21568;-71
2022/11/26 04:00:16;;;;;;;307.03;50.67;;;;;;;1.23;100.00;100539.88;4205828;28;21597;-71
2022/11/26 04:02:43;;;;;;;181.73;43.17;;;;;;;1.24;100.00;100531.94;4204654;28;22094;-73
2022/11/26 04:05:09;;;;;;;142.10;40.47;;;;;;;1.31;100.00;100542.06;4206259;28;20241;-70
2022/11/26 04:07:36;;;;;;;154.60;40.23;;;;;;;1.32;100.00;100536.75;4204026;28;20233;-71
2022/11/26 04:10:03;;;;;;;152.13;40.70;;;;;;;1.32;100.00;100544.63;4206001;28;23127;-70
2022/11/26 04:12:30;;;;;;;156.20;41.10;;;;;;;1.36;100.00;100545.28;4233007;28;20232;-72
2022/11/26 04:14:56;;;;;;;168.10;43.37;;;;;;;1.29;100.00;100555.28;4204898;28;20258;-70
2022/11/26 04:17:23;;;;;;;166.20;42.03;;;;;;;1.28;100.00;100548.31;4204764;28;20233;-70
2022/11/26 04:19:50;;;;;;;159.00;40.87;;;;;;;1.30;100.00;100545.63;4202962;28;21241;-71
2022/11/26 04:22:17;;;;;;;153.43;40.30;;;;;;;1.29;100.00;100555.28;4214458;28;20260;-72
2022/11/26 04:24:43;;;;;;;178.23;44.17;;;;;;;1.22;100.00;100553.91;4211724;28;20237;-72
2022/11/26 04:27:10;;;;;;;175.10;42.97;;;;;;;1.11;100.00;100557.09;4201877;28;27088;-71
2022/11/26 04:29:36;;;;;;;185.23;44.00;;;;;;;1.08;100.00;100561.63;4213473;28;26070;-71
2022/11/26 04:32:03;;;;;;;166.60;42.17;;;;;;;1.09;100.00;100563.34;4200013;28;20236;-70
2022/11/26 04:34:30;;;;;;;157.77;40.93;;;;;;;1.07;100.00;100560.81;4201897;28;20301;-71
2022/11/26 04:36:57;;;;;;;145.37;37.87;;;;;;;1.15;100.00;100557.81;4204600;28;26323;-72
2022/11/26 04:39:23;;;;;;;135.57;38.43;;;;;;;1.17;100.00;100567.28;4201921;28;20235;-71
2022/11/26 04:41:50;;;;;;;140.60;38.90;;;;;;;1.20;100.00;100561.84;4208277;28;25947;-70
2022/11/26 04:44:16;;;;;;;154.47;39.17;;;;;;;1.19;100.00;100568.00;4204929;28;20300;-70
2022/11/26 04:46:43;;;;;;;164.23;41.97;;;;;;;1.14;100.00;100575.28;4203547;28;21803;-71
2022/11/26 04:49:10;;;;;;;135.70;37.97;;;;;;;1.21;100.00;100576.63;4226111;28;20230;-71
2022/11/26 04:51:36;;;;;;;149.23;41.67;;;;;;;1.03;100.00;100580.22;4299059;28;20677;-69
2022/11/26 04:54:03;;;;;;;148.13;38.93;;;;;;;0.95;100.00;100577.19;4272855;28;20486;-72
2022/11/26 04:56:38;;;;;;;144.00;38.47;;;;;;;0.99;100.00;100583.97;4281162;28;20613;-70
2022/11/26 04:59:04;;;;;;;125.60;35.77;;;;;;;1.09;100.00;100576.47;4259605;28;20305;-72
2022/11/26 05:01:31;;;;;;;119.23;35.53;;;;;;;1.09;100.00;100585.16;4201223;28;20622;-72
2022/11/26 05:03:57;;;;;;;123.80;34.93;;;;;;;1.14;100.00;100587.53;4202812;28;20242;-70
2022/11/26 05:06:24;;;;;;;105.07;33.47;;;;;;;1.20;100.00;100588.06;4199337;28;20236;-70
2022/11/26 05:08:50;;;;;;;138.97;37.33;;;;;;;1.09;100.00;100585.16;4197967;28;20232;-72
2022/11/26 05:11:17;;;;;;;134.53;37.50;;;;;;;1.10;100.00;100586.88;4197246;28;20232;-72
2022/11/26 05:13:44;;;;;;;158.87;38.17;;;;;;;1.08;100.00;100583.47;4199764;28;21324;-71
2022/11/26 05:16:10;;;;;;;154.93;37.13;;;;;;;1.04;100.00;100592.41;4198103;28;20311;-70
2022/11/26 05:18:37;;;;;;;139.57;37.53;;;;;;;1.03;100.00;100588.09;4199582;28;21082;-71
2022/11/26 05:21:05;;;;;;;144.70;37.07;;;;;;;1.09;100.00;100592.19;4201031;28;20235;-70
2022/11/26 05:23:31;;;;;;;141.10;36.83;;;;;;;1.09;100.00;100600.03;4189133;28;20244;-71
2022/11/26 05:25:58;;;;;;;144.67;35.47;;;;;;;1.09;100.00;100603.50;4210311;28;20232;-72
2022/11/26 05:28:24;;;;;;;151.33;38.27;;;;;;;1.03;100.00;100590.72;4201743;28;20305;-70
2022/11/26 05:30:58;;;;;;;143.70;37.10;;;;;;;1.10;100.00;100597.34;4204947;28;20236;-71
2022/11/26 05:33:25;;;;;;;150.67;38.20;;;;;;;1.12;100.00;100603.34;4209875;28;20240;-70
2022/11/26 05:35:52;;;;;;;158.90;39.83;;;;;;;1.15;100.00;100602.34;4202801;28;20337;-70
2022/11/26 05:38:18;;;;;;;155.37;39.00;;;;;;;1.02;100.00;100604.75;4201960;28;20232;-71
2022/11/26 05:40:45;;;;;;;150.63;34.57;;;;;;;1.09;100.00;100606.13;4196868;28;20229;-71
2022/11/26 05:43:12;;;;;;;113.07;32.87;;;;;;;1.13;100.00;100612.06;4201944;28;20239;-71
2022/11/26 05:45:38;;;;;;;109.70;32.60;;;;;;;1.15;100.00;100613.69;4198682;28;20394;-70
2022/11/26 05:48:05;;;;;;;123.40;31.90;;;;;;;1.18;100.00;100613.50;4194791;28;20243;-72
2022/11/26 05:50:32;;;;;;;108.77;31.27;;;;;;;1.15;100.00;100620.69;4200006;28;20236;-72
2022/11/26 05:52:59;;;;;;;117.80;32.73;;;;;;;1.11;100.00;100620.00;4210654;28;21535;-72
2022/11/26 05:55:25;;;;;;;108.20;31.30;;;;;;;1.15;100.00;100628.56;4200145;28;20318;-70
2022/11/26 05:57:52;;;;;;;101.63;30.37;;;;;;;1.10;100.00;100633.16;4208143;28;25384;-71
2022/11/26 06:00:18;;;;;;;105.73;31.97;;;;;;;0.92;100.00;100634.97;4200759;28;22087;-71
2022/11/26 06:02:45;;;;;;;94.53;29.33;;;;;;;1.07;100.00;100638.56;4202497;28;20241;-71
2022/11/26 06:05:12;;;;;;;110.93;32.33;;;;;;;1.10;100.00;100644.53;4202474;28;20244;-71
2022/11/26 06:07:38;;;;;;;101.73;29.53;;;;;;;1.11;100.00;100646.19;4196068;28;22462;-71
2022/11/26 06:10:11;;;;;;;115.03;31.33;;;;;;;0.82;100.00;100647.72;4211068;28;20316;-71
2022/11/26 06:12:38;;;;;;;105.27;30.10;;;;;;;0.91;100.00;100643.75;4203695;28;20964;-71
2022/11/26 06:15:05;;;;;;;110.47;29.47;;;;;;;0.94;100.00;100648.84;4198338;28;25548;-71
2022/11/26 06:17:31;;;;;;;106.43;29.87;;;;;;;0.96;100.00;100652.22;4186684;28;20306;-71
2022/11/26 06:19:58;;;;;;;114.83;31.97;;;;;;;0.86;100.00;100651.84;4209069;28;21602;-70
2022/11/26 06:22:25;;;;;;;100.23;28.17;;;;;;;0.91;100.00;100654.22;4192371;28;20470;-71
2022/11/26 06:24:51;;;;;;;100.87;28.47;;;;;;;0.85;100.00;100652.78;4209732;28;20531;-73
2022/11/26 06:27:18;;;;;;;110.50;29.80;;;;;;;0.72;100.00;100660.41;4201951;28;20243;-70
2022/11/26 06:29:44;;;;;;;94.13;29.10;;;;;;;0.77;100.00;100665.41;4206125;28;25881;-73
2022/11/26 06:32:11;;;;;;;105.20;30.53;;;;;;;0.74;100.00;100661.16;4201908;28;20232;-71
2022/11/26 06:34:37;;;;;;;95.40;29.50;;;;;;;0.79;100.00;100669.63;4200008;28;20241;-70
2022/11/26 06:37:05;;;;;;;98.00;28.47;;;;;;;0.75;100.00;100675.09;4208082;28;22094;-71
2022/11/26 06:39:31;;;;;;;92.57;27.87;;;;;;;0.77;100.00;100668.03;4199012;28;21278;-70
2022/11/26 06:41:58;;;;;;;86.07;27.77;;;;;;;0.85;100.00;100676.34;4203316;28;20233;-73
2022/11/26 06:44:24;;;;;;;84.53;26.87;;;;;;;0.77;100.00;100671.50;4216677;28;20473;-73
2022/11/26 06:46:51;;;;;;;90.63;27.83;;;;;;;0.70;100.00;100671.88;4202161;28;21865;-74
2022/11/26 06:49:17;;;;;;;89.20;26.83;;;;;;;0.81;100.00;100675.66;4200236;28;20975;-71
2022/11/26 06:51:44;;;;;;;87.43;26.57;;;;;;;0.90;100.00;100674.34;4200282;28;21217;-72
2022/11/26 06:54:10;;;;;;;89.00;26.73;;;;;;;0.79;100.00;100679.28;4207364;28;20263;-73
2022/11/26 06:56:38;;;;;;;87.07;25.93;;;;;;;0.80;100.00;100683.59;4211425;28;20232;-72
2022/11/26 06:59:04;;;;;;;82.20;26.67;;;;;;;0.82;100.00;100693.09;4203015;28;20744;-72
2022/11/26 07:01:34;;;;;;;99.73;28.00;;;;;;;0.90;100.00;100686.59;4228361;28;20247;-73
2022/11/26 07:04:01;;;;;;;105.77;30.27;;;;;;;0.81;100.00;100688.75;4258250;28;20707;-72
2022/11/26 07:06:29;;;;;;;109.17;28.83;;;;;;;0.76;100.00;100701.22;4227610;28;20239;-70
2022/11/26 07:08:58;;;;;;;102.27;28.83;;;;;;;0.74;100.00;100703.06;4212347;28;21222;-72
2022/11/26 07:11:25;;;;;;;94.87;27.20;;;;;;;0.86;100.00;100703.41;4224938;28;20657;-68
2022/11/26 07:13:54;;;;;;;98.90;28.33;;;;;;;0.80;100.00;100705.41;4222470;28;20302;-67
2022/11/26 07:16:21;;;;;;;89.93;27.03;;;;;;;0.74;100.00;100697.84;4197541;28;20293;-69
2022/11/26 07:18:49;;;;;;;97.13;27.60;;;;;;;0.61;100.00;100700.22;4213467;28;21844;-69
2022/11/26 07:21:16;;;;;;;89.27;25.53;;;;;;;0.56;100.00;100706.59;4227475;28;20561;-68
2022/11/26 07:23:43;;;;;;;88.70;28.53;;;;;;;0.49;100.00;100705.19;4226551;28;21072;-70
2022/11/26 07:26:11;;;;;;;98.93;26.97;;;;;;;0.55;100.00;100705.75;4244031;28;20760;-71
2022/11/26 07:28:39;;;;;;;84.60;26.37;;;;;;;0.55;100.00;100710.97;4207329;28;20256;-69
2022/11/26 07:31:11;;;;;;;87.10;25.47;;;;;;;0.41;100.00;100719.50;4232720;28;20247;-73
2022/11/26 07:33:43;;;;;;;88.87;26.53;;;;;;;0.53;100.00;100720.69;4245719;28;20241;-70
2022/11/26 07:36:15;;;;;;;74.73;25.30;;;;;;;0.63;100.00;100731.56;4246673;28;21201;-72
2022/11/26 07:38:42;;;;;;;77.70;26.07;;;;;;;0.65;100.00;100732.34;4233484;28;20294;-71
2022/11/26 07:41:12;;;;;;;89.63;26.63;;;;;;;0.53;100.00;100732.94;4233334;28;20692;-70
2022/11/26 07:43:40;;;;;;;84.37;25.97;;;;;;;0.39;100.00;100742.28;4218514;28;20240;-70
2022/11/26 07:46:09;;;;;;;77.80;25.53;;;;;;;0.23;100.00;100746.53;4237298;28;20235;-71
2022/11/26 07:48:38;;;;;;;81.40;27.10;;;;;;;0.39;100.00;100747.50;4241245;28;20243;-70
2022/11/26 07:51:06;;;;;;;77.50;25.57;;;;;;;0.37;100.00;100746.72;4212191;28;20832;-72
2022/11/26 07:53:34;;;;;;;81.23;25.70;;;;;;;0.30;100.00;100753.19;4234138;28;21816;-68
2022/11/26 07:56:05;;;;;;;91.10;26.83;;;;;;;0.25;100.00;100752.56;4244605;28;20228;-74
2022/11/26 07:58:31;;;;;;;81.80;25.40;;;;;;;0.40;100.00;100759.69;4235096;28;20231;-73
2022/11/26 08:01:31;;;;;;;82.03;26.33;;;;;;;0.53;100.00;100761.72;4235451;28;20299;-72
2022/11/26 08:03:59;;;;;;;84.13;25.40;;;;;;;0.61;100.00;100762.22;4186015;28;21380;-72
2022/11/26 08:06:27;;;;;;;82.40;25.63;;;;;;;0.37;100.00;100754.59;4220931;28;20353;-73
2022/11/26 08:08:54;;;;;;;78.50;25.50;;;;;;;0.40;100.00;100758.84;4222641;28;20244;-74
2022/11/26 08:11:23;;;;;;;85.17;25.57;;;;;;;0.45;100.00;100759.47;4216581;28;21192;-71
2022/11/26 08:13:54;;;;;;;74.03;26.20;;;;;;;0.50;100.00;100764.50;4252471;28;20506;-69
2022/11/26 08:16:21;;;;;;;80.93;24.57;;;;;;;0.58;100.00;100762.34;4292026;28;20343;-70
2022/11/26 08:19:07;;;;;;;89.97;26.00;;;;;;;0.56;100.00;100769.44;4365103;28;20604;-70
2022/11/26 08:21:37;;;;;;;92.20;28.37;;;;;;;0.51;100.00;100766.19;4433354;28;20233;-71
2022/11/26 08:24:07;;;;;;;86.27;25.63;;;;;;;0.27;100.00;100763.81;4371864;28;21232;-68
2022/11/26 08:26:34;;;;;;;80.83;24.03;;;;;;;0.41;100.00;100768.41;4496069;28;23416;-67
2022/11/26 08:29:12;;;;;;;77.47;25.80;;;;;;;0.55;100.00;100765.97;4405349;28;20394;-71
2022/11/26 08:31:43;;;;;;;87.23;26.23;;;;;;;0.61;100.00;100772.72;4467742;28;21723;-65
2022/11/26 08:34:16;;;;;;;79.80;24.63;;;;;;;0.60;100.00;100773.59;4398049;28;22378;-76
2022/11/26 08:36:56;;;;;;;77.77;24.27;;;;;;;0.70;100.00;100777.47;4314976;28;20362;-70
2022/11/26 08:39:24;;;;;;;75.93;23.83;;;;;;;0.76;100.00;100785.06;4367721;28;20257;-66
2022/11/26 08:41:50;;;;;;;73.57;23.97;;;;;;;0.77;100.00;100778.91;4345186;28;20229;-67
2022/11/26 08:44:18;;;;;;;70.77;21.97;;;;;;;0.77;100.00;100789.38;4251685;28;20303;-67
2022/11/26 08:46:45;;;;;;;79.83;23.63;;;;;;;0.79;100.00;100790.13;4237660;28;20245;-68
2022/11/26 08:49:12;;;;;;;74.10;23.57;;;;;;;0.70;100.00;100787.94;4218128;28;20698;-71
2022/11/26 08:51:39;;;;;;;72.10;23.70;;;;;;;0.68;100.00;100795.06;4227395;28;20231;-66
2022/11/26 08:54:06;;;;;;;73.63;24.20;;;;;;;0.77;100.00;100791.13;4218631;28;21794;-65
2022/11/26 08:56:33;;;;;;;77.73;23.50;;;;;;;0.74;100.00;100794.75;4213850;28;20414;-69
2022/11/26 08:59:00;;;;;;;71.20;23.43;;;;;;;0.68;100.00;100786.34;4212200;28;20346;-67
2022/11/26 09:01:28;;;;;;;68.53;22.57;;;;;;;0.79;100.00;100792.75;4208739;28;20284;-69
2022/11/26 09:03:57;;;;;;;68.13;23.43;;;;;;;0.70;100.00;100795.81;4204689;28;20235;-68
2022/11/26 09:06:26;;;;;;;74.70;24.30;;;;;;;0.79;100.00;100798.00;4206336;28;20229;-71
2022/11/26 09:09:11;;;;;;;70.93;21.00;;;;;;;0.78;100.00;100793.69;4204240;28;21142;-70
2022/11/26 09:11:48;;;;;;;74.20;24.23;;;;;;;0.74;100.00;100796.53;4201164;28;20308;-68
2022/11/26 09:14:17;;;;;;;64.73;21.50;;;;;;;0.81;100.00;100801.38;4207420;28;24198;-65
2022/11/26 09:16:44;;;;;;;73.43;24.33;;;;;;;0.81;100.00;100803.16;4201588;28;20677;-65
2022/11/26 09:19:12;;;;;;;75.13;24.47;;;;;;;0.95;100.00;100812.97;4204523;28;20354;-65
2022/11/26 09:21:39;;;;;;;77.90;23.47;;;;;;;0.84;100.00;100806.50;4208669;28;20240;-62
2022/11/26 09:24:05;;;;;;;74.80;22.47;;;;;;;0.83;100.00;100807.41;4207068;28;21455;-65
2022/11/26 09:26:33;;;;;;;69.07;22.53;;;;;;;0.74;100.00;100807.84;4198741;28;20419;-64
2022/11/26 09:29:00;;;;;;;75.20;23.80;;;;;;;0.71;100.00;100804.53;4206806;28;20243;-66
2022/11/26 09:31:27;;;;;;;82.73;25.20;;;;;;;0.61;100.00;100806.75;4208867;28;20240;-70
2022/11/26 09:33:55;;;;;;;81.10;21.93;;;;;;;0.41;100.00;100813.75;4214264;28;21246;-66
2022/11/26 09:36:22;;;;;;;73.10;23.17;;;;;;;0.48;100.00;100810.84;4201812;28;20311;-65
2022/11/26 09:38:52;;;;;;;71.30;22.53;;;;;;;0.63;100.00;100808.38;4206470;28;20236;-67
2022/11/26 09:41:37;;;;;;;76.03;23.20;;;;;;;0.61;100.00;100812.84;4222504;28;22912;-66
2022/11/26 09:44:21;;;;;;;76.87;23.83;;;;;;;0.66;100.00;100811.78;4208581;28;20236;-67
2022/11/26 09:47:21;;;;;;;74.67;23.27;;;;;;;0.50;100.00;100809.00;4204123;28;20232;-64
2022/11/26 09:50:12;;;;;;;74.77;23.20;;;;;;;0.47;100.00;100807.38;4196211;28;21720;-67
2022/11/26 09:53:03;;;;;;;78.30;22.77;;;;;;;0.60;100.00;100797.19;4211419;28;23576;-69
2022/11/26 09:55:32;;;;;;;67.37;22.43;;;;;;;0.47;100.00;100807.38;4238274;28;20239;-67
2022/11/26 09:58:37;;;;;;;66.87;22.87;;;;;;;0.58;100.00;100806.88;4206416;28;20438;-68
2022/11/26 10:01:05;;;;;;;70.60;21.63;;;;;;;0.59;100.00;100803.34;4225557;28;20240;-68
2022/11/26 10:03:34;;;;;;;64.83;20.83;;;;;;;0.72;100.00;100814.91;4204016;28;20586;-67
2022/11/26 10:06:12;;;;;;;68.37;21.60;;;;;;;0.86;100.00;100813.44;4203211;28;21739;-67
2022/11/26 10:09:06;;;;;;;65.03;22.27;;;;;;;0.99;100.00;100819.78;4214234;28;20300;-68
2022/11/26 10:12:06;;;;;;;58.10;21.03;;;;;;;1.03;100.00;100822.19;4229649;28;20241;-67
2022/11/26 10:15:24;;;;;;;57.73;20.57;;;;;;;1.10;100.00;100833.22;4215224;28;20249;-69
2022/11/26 10:17:53;;;;;;;59.17;20.30;;;;;;;1.09;100.00;100831.50;4224607;28;20674;-72
2022/11/26 10:20:50;;;;;;;63.03;21.27;;;;;;;1.12;100.00;100835.75;4211229;28;20309;-69
2022/11/26 10:23:31;;;;;;;61.40;20.90;;;;;;;1.09;100.00;100834.13;4231368;28;20229;-71
2022/11/26 10:26:08;;;;;;;65.10;20.87;;;;;;;1.09;100.00;100836.75;4223104;28;20303;-72
2022/11/26 10:28:49;;;;;;;62.60;21.20;;;;;;;1.13;100.00;100834.84;4229974;28;20236;-69
2022/11/26 10:31:23;;;;;;;66.20;23.17;;;;;;;0.96;100.00;100835.63;4226833;28;20240;-71
2022/11/26 10:33:54;;;;;;;62.73;21.30;;;;;;;0.99;100.00;100835.50;4215201;28;23008;-73
2022/11/26 10:36:24;;;;;;;58.60;20.70;;;;;;;0.98;100.00;100841.66;4214216;28;25733;-69
2022/11/26 10:38:52;;;;;;;61.70;20.77;;;;;;;0.76;100.00;100841.84;4197280;28;20466;-71
2022/11/26 10:41:19;;;;;;;57.80;21.50;;;;;;;0.71;100.00;100842.06;4224986;28;20244;-69
2022/11/26 10:43:46;;;;;;;63.40;21.20;;;;;;;0.88;100.00;100832.53;4217713;28;21895;-69
2022/11/26 10:46:36;;;;;;;63.80;21.57;;;;;;;0.87;100.00;100836.06;4213928;28;20316;-70
2022/11/26 10:49:22;;;;;;;67.83;22.87;;;;;;;0.84;100.00;100839.69;4220620;28;20299;-69
2022/11/26 10:51:50;;;;;;;62.53;21.97;;;;;;;0.81;100.00;100831.97;4217762;28;20401;-71
2022/11/26 10:54:23;;;;;;;62.43;21.27;;;;;;;0.94;100.00;100837.50;4201363;28;22140;-70
2022/11/26 10:56:54;;;;;;;55.87;20.37;;;;;;;1.04;100.00;100842.22;4214114;28;20318;-70
2022/11/26 10:59:27;;;;;;;61.50;21.27;;;;;;;0.91;100.00;100842.88;4212713;28;20228;-68
2022/11/26 11:02:00;;;;;;;59.23;21.47;;;;;;;0.92;100.00;100841.97;4215328;28;20503;-70
2022/11/26 11:04:31;;;;;;;67.73;22.67;;;;;;;0.93;100.00;100838.41;4199862;28;25477;-71
2022/11/26 11:06:57;;;;;;;68.07;22.87;;;;;;;0.97;100.00;100846.06;4205504;28;20740;-73
2022/11/26 11:09:28;;;;;;;60.03;21.33;;;;;;;0.98;100.00;100844.28;4197544;28;20296;-71
2022/11/26 11:12:24;;;;;;;62.60;22.10;;;;;;;0.87;100.00;100843.94;4207255;28;20306;-72
2022/11/26 11:14:51;;;;;;;51.47;20.73;;;;;;;0.89;100.00;100849.94;4207322;28;22189;-73
2022/11/26 11:17:24;;;;;;;63.60;22.60;;;;;;;0.76;100.00;100854.94;4206504;28;20305;-73
2022/11/26 11:19:50;;;;;;;61.23;21.90;;;;;;;0.86;100.00;100850.09;4199368;28;20233;-73